Time;durP1;ratioP1;P1;durP2;ratioP2;P2;SDS_P1;SDS_P2;PMS_P1;PMS_P2;Temp;Humidity;BMP_temperature;BMP_pressure;BME280_temperature;BME280_humidity;BME280_pressure;Samples;Min_cycle;Max_cycle;Signal;HPM_P1;HPM_P2
2022/09/05 00:00:59;;;;;;;4.80;2.90;;;17.00;99.90;;;;;;5037462;28;20061;-76
2022/09/05 00:03:39;;;;;;;5.75;3.25;;;17.00;99.90;;;;;;5069187;28;20052;-76
2022/09/05 00:06:10;;;;;;;6.90;3.25;;;17.00;99.90;;;;;;5068186;28;20025;-76
2022/09/05 00:08:38;;;;;;;5.95;3.00;;;17.00;99.90;;;;;;5069907;28;20100;-76
2022/09/05 00:11:34;;;;;;;4.47;2.58;;;17.00;99.90;;;;;;5071492;28;20062;-76
2022/09/05 00:14:27;;;;;;;4.68;2.38;;;17.00;99.90;;;;;;5070628;28;20143;-76
2022/09/05 00:17:08;;;;;;;5.72;2.60;;;17.00;99.90;;;;;;5068883;28;20056;-76
2022/09/05 00:20:01;;;;;;;5.18;2.42;;;16.90;99.90;;;;;;5069874;28;20073;-76
2022/09/05 00:22:44;;;;;;;3.80;2.88;;;16.90;99.90;;;;;;5070897;28;20209;-76
2022/09/05 00:25:33;;;;;;;5.90;2.22;;;16.90;99.90;;;;;;5069516;28;20029;-76
2022/09/05 00:28:36;;;;;;;4.57;2.60;;;16.80;99.90;;;;;;5065234;28;20024;-76
2022/09/05 00:31:36;;;;;;;5.32;2.60;;;16.80;99.90;;;;;;5071466;28;20021;-76
2022/09/05 00:34:33;;;;;;;4.65;2.38;;;16.80;99.90;;;;;;5066098;28;20028;-75
2022/09/05 00:37:00;;;;;;;4.60;2.53;;;16.70;99.90;;;;;;5064158;28;20034;-76
2022/09/05 00:39:32;;;;;;;3.80;2.60;;;16.70;99.90;;;;;;5071212;28;20527;-76
2022/09/05 00:42:04;;;;;;;6.20;2.70;;;16.70;99.90;;;;;;5069818;28;20081;-76
2022/09/05 00:44:34;;;;;;;6.60;2.42;;;16.60;99.90;;;;;;5069783;28;20017;-76
2022/09/05 00:47:10;;;;;;;5.32;3.15;;;16.50;99.90;;;;;;5048033;28;20448;-76
2022/09/05 00:49:44;;;;;;;7.15;3.40;;;16.50;99.90;;;;;;5059221;28;20085;-76
2022/09/05 00:52:23;;;;;;;5.22;3.30;;;16.50;99.90;;;;;;5071302;28;20489;-75
2022/09/05 00:55:25;;;;;;;3.35;2.53;;;16.40;99.90;;;;;;5062326;28;20029;-76
2022/09/05 00:58:09;;;;;;;4.90;3.00;;;16.40;99.90;;;;;;5058326;28;20045;-76
2022/09/05 01:00:57;;;;;;;6.47;3.10;;;16.30;99.90;;;;;;5063444;28;20048;-76
2022/09/05 01:03:35;;;;;;;4.57;2.75;;;16.30;99.90;;;;;;5074473;28;20476;-76
2022/09/05 01:06:19;;;;;;;6.78;4.03;;;16.20;99.90;;;;;;5070668;28;20033;-76
2022/09/05 01:08:58;;;;;;;5.95;3.17;;;16.20;99.90;;;;;;5053016;28;20052;-75
2022/09/05 01:11:35;;;;;;;5.75;3.40;;;16.20;99.90;;;;;;5052120;28;20035;-76
2022/09/05 01:14:26;;;;;;;8.30;3.72;;;16.10;99.90;;;;;;5037028;28;20025;-76
2022/09/05 01:17:17;;;;;;;7.78;3.50;;;16.10;99.90;;;;;;5068289;28;20086;-76
2022/09/05 01:20:08;;;;;;;7.63;3.70;;;16.10;99.90;;;;;;5055063;28;20036;-76
2022/09/05 01:22:57;;;;;;;7.78;4.70;;;16.10;99.90;;;;;;5064728;28;20571;-76
2022/09/05 01:26:00;;;;;;;7.72;4.43;;;16.00;99.90;;;;;;5059226;28;20033;-75
2022/09/05 01:28:44;;;;;;;7.53;4.82;;;16.00;99.90;;;;;;5074407;28;20025;-76
2022/09/05 01:31:43;;;;;;;8.02;3.85;;;16.00;99.90;;;;;;5072591;28;20388;-75
2022/09/05 01:34:36;;;;;;;5.30;3.88;;;16.00;99.90;;;;;;5069376;28;20081;-76
2022/09/05 01:37:16;;;;;;;5.72;4.10;;;16.00;99.90;;;;;;5055173;28;20058;-76
2022/09/05 01:40:06;;;;;;;6.22;3.97;;;15.90;99.90;;;;;;5072736;28;20103;-76
2022/09/05 01:42:38;;;;;;;6.45;4.10;;;15.90;99.90;;;;;;5068387;28;20094;-76
2022/09/05 01:45:14;;;;;;;7.50;3.53;;;15.90;99.90;;;;;;5052539;28;20027;-76
2022/09/05 01:48:07;;;;;;;6.18;3.40;;;16.00;99.90;;;;;;5074877;28;20028;-75
2022/09/05 01:51:05;;;;;;;7.45;3.88;;;16.00;99.90;;;;;;5069813;28;20040;-76
2022/09/05 01:53:49;;;;;;;5.03;3.45;;;16.00;99.90;;;;;;5041857;28;20040;-76
2022/09/05 01:56:38;;;;;;;6.38;4.13;;;15.90;99.90;;;;;;5073967;28;20039;-75
2022/09/05 01:59:25;;;;;;;4.85;3.38;;;15.90;99.90;;;;;;5064393;28;20030;-75
2022/09/05 02:01:57;;;;;;;9.70;3.83;;;15.90;99.90;;;;;;5050135;28;20041;-75
2022/09/05 02:04:56;;;;;;;6.53;3.80;;;15.90;99.90;;;;;;5067943;28;20031;-75
2022/09/05 02:07:59;;;;;;;5.32;2.97;;;15.90;99.90;;;;;;5062574;28;20484;-75
2022/09/05 02:11:04;;;;;;;6.30;4.13;;;15.90;99.90;;;;;;5053227;28;20016;-75
2022/09/05 02:13:32;;;;;;;5.20;3.17;;;15.90;99.90;;;;;;5067849;28;20037;-75
2022/09/05 02:16:26;;;;;;;6.40;3.70;;;16.00;99.90;;;;;;5072539;28;20040;-75
2022/09/05 02:19:10;;;;;;;8.07;3.50;;;16.00;99.90;;;;;;5068602;28;20031;-76
2022/09/05 02:21:38;;;;;;;4.90;3.22;;;16.00;99.90;;;;;;5072257;28;20102;-75
2022/09/05 02:24:36;;;;;;;4.13;3.20;;;16.00;99.90;;;;;;5068459;28;20104;-75
2022/09/05 02:27:07;;;;;;;5.97;3.22;;;16.10;99.90;;;;;;5062651;28;20032;-76
2022/09/05 02:29:58;;;;;;;7.53;3.58;;;16.10;99.90;;;;;;5064345;28;20025;-75
2022/09/05 02:32:31;;;;;;;6.30;3.53;;;16.10;99.90;;;;;;5068707;28;20020;-75
2022/09/05 02:35:06;;;;;;;5.03;3.10;;;16.00;99.90;;;;;;5069584;28;20086;-75
2022/09/05 02:37:53;;;;;;;7.32;3.67;;;16.00;99.90;;;;;;5069956;28;20123;-75
2022/09/05 02:40:46;;;;;;;6.07;3.40;;;16.10;99.90;;;;;;5060582;28;20094;-76
2022/09/05 02:43:18;;;;;;;6.53;3.97;;;16.00;99.90;;;;;;5070359;28;20091;-77
2022/09/05 02:45:56;;;;;;;6.63;3.20;;;16.00;99.90;;;;;;5071058;28;20064;-76
2022/09/05 02:48:50;;;;;;;5.55;3.47;;;16.00;99.90;;;;;;5065284;28;20024;-75
2022/09/05 02:51:20;;;;;;;5.90;3.85;;;16.00;99.90;;;;;;5064170;28;20365;-75
2022/09/05 02:54:23;;;;;;;5.35;3.88;;;15.90;99.90;;;;;;5066928;28;20020;-75
2022/09/05 02:56:55;;;;;;;4.80;3.75;;;16.00;99.90;;;;;;5039080;28;20064;-75
2022/09/05 02:59:38;;;;;;;6.97;4.00;;;15.90;99.90;;;;;;5069034;28;20024;-76
2022/09/05 03:02:43;;;;;;;11.98;3.97;;;15.90;99.90;;;;;;5040353;28;20032;-75
2022/09/05 03:05:18;;;;;;;7.15;4.35;;;15.90;99.90;;;;;;5048442;28;20036;-75
2022/09/05 03:08:20;;;;;;;7.43;4.22;;;15.90;99.90;;;;;;5070115;28;20031;-75
2022/09/05 03:11:14;;;;;;;7.60;4.75;;;15.90;99.90;;;;;;5061531;28;20055;-75
2022/09/05 03:14:25;;;;;;;7.65;4.80;;;15.80;99.90;;;;;;5060419;28;20043;-75
2022/09/05 03:17:30;;;;;;;6.68;5.13;;;15.90;99.90;;;;;;5061872;28;20064;-75
2022/09/05 03:20:11;;;;;;;7.05;5.15;;;15.80;99.90;;;;;;5064452;28;20029;-75
2022/09/05 03:23:14;;;;;;;10.73;6.00;;;15.70;99.90;;;;;;5063721;28;20083;-76
2022/09/05 03:26:04;;;;;;;6.05;5.32;;;15.80;99.90;;;;;;5065722;28;20127;-75
2022/09/05 03:28:51;;;;;;;8.50;5.88;;;15.70;99.90;;;;;;5062083;28;20081;-75
2022/09/05 03:32:05;;;;;;;8.73;6.22;;;15.70;99.90;;;;;;5068968;28;20492;-75
2022/09/05 03:34:39;;;;;;;9.38;6.10;;;15.70;99.90;;;;;;5067240;28;20112;-75
2022/09/05 03:37:39;;;;;;;10.52;6.65;;;15.60;99.90;;;;;;5060582;28;20037;-75
2022/09/05 03:40:35;;;;;;;9.88;5.60;;;15.60;99.90;;;;;;5063107;28;20025;-75
2022/09/05 03:43:32;;;;;;;10.80;6.88;;;15.50;99.90;;;;;;5066165;28;20135;-75
2022/09/05 03:46:26;;;;;;;8.95;6.18;;;15.50;99.90;;;;;;5052754;28;20059;-75
2022/09/05 03:49:17;;;;;;;7.53;5.65;;;15.40;99.90;;;;;;5065140;28;20029;-75
2022/09/05 03:51:54;;;;;;;9.88;6.63;;;15.40;99.90;;;;;;5058779;28;20048;-75
2022/09/05 03:54:48;;;;;;;10.40;5.75;;;15.40;99.90;;;;;;5025292;28;20056;-75
2022/09/05 03:57:23;;;;;;;9.85;6.60;;;15.40;99.90;;;;;;5068227;28;20051;-75
2022/09/05 04:00:21;;;;;;;9.30;6.65;;;15.30;99.90;;;;;;5040751;28;20025;-76
2022/09/05 04:03:01;;;;;;;9.60;6.88;;;15.30;99.90;;;;;;5038101;28;20121;-75
2022/09/05 04:05:32;;;;;;;11.02;7.85;;;15.20;99.90;;;;;;5063408;28;20048;-75
2022/09/05 04:08:07;;;;;;;10.90;7.30;;;15.20;99.90;;;;;;5039562;28;20040;-75
2022/09/05 04:11:01;;;;;;;10.20;7.53;;;15.20;99.90;;;;;;5068873;28;20025;-75
2022/09/05 04:13:54;;;;;;;10.10;7.40;;;15.20;99.90;;;;;;5062984;28;20071;-75
2022/09/05 04:16:43;;;;;;;10.32;7.00;;;15.20;99.90;;;;;;5050020;28;20417;-75
2022/09/05 04:19:37;;;;;;;8.98;6.70;;;15.10;99.90;;;;;;5068068;28;20107;-75
2022/09/05 04:22:33;;;;;;;12.57;6.97;;;15.10;99.90;;;;;;5050921;28;20036;-75
2022/09/05 04:25:20;;;;;;;10.60;7.43;;;15.10;99.90;;;;;;5066209;28;20039;-75
2022/09/05 04:28:23;;;;;;;11.23;8.07;;;15.10;99.90;;;;;;5064225;28;20087;-75
2022/09/05 04:30:53;;;;;;;;;;;15.10;99.90;;;;;;5068979;28;20120;-75
2022/09/05 04:33:31;;;;;;;13.40;8.30;;;15.00;99.90;;;;;;5070319;28;19909;-75
2022/09/05 04:36:21;;;;;;;13.75;8.00;;;15.00;99.90;;;;;;5068232;28;20040;-75
2022/09/05 04:39:21;;;;;;;14.10;7.97;;;15.00;99.90;;;;;;5055191;28;20048;-75
2022/09/05 04:42:28;;;;;;;10.80;8.70;;;14.90;99.90;;;;;;5062236;28;20053;-75
2022/09/05 04:45:02;;;;;;;11.77;8.02;;;14.90;99.90;;;;;;5062908;28;20112;-75
2022/09/05 04:47:35;;;;;;;10.60;7.95;;;14.90;99.90;;;;;;5044370;28;20028;-75
2022/09/05 04:50:07;;;;;;;12.52;8.48;;;14.80;99.90;;;;;;5056604;28;20033;-75
2022/09/05 04:52:48;;;;;;;9.07;7.75;;;14.80;99.90;;;;;;5067310;28;20035;-76
2022/09/05 04:55:31;;;;;;;11.82;8.80;;;14.80;99.90;;;;;;5064436;28;20812;-75
2022/09/05 04:58:11;;;;;;;11.77;8.57;;;14.80;99.90;;;;;;5058401;28;20487;-75
2022/09/05 05:00:45;;;;;;;9.82;8.05;;;14.80;99.90;;;;;;5054703;28;20020;-75
2022/09/05 05:03:15;;;;;;;11.25;8.70;;;14.80;99.90;;;;;;5047899;28;20027;-75
2022/09/05 05:06:06;;;;;;;13.48;9.30;;;14.80;99.90;;;;;;5064840;28;20020;-75
2022/09/05 05:08:44;;;;;;;13.70;10.00;;;14.80;99.90;;;;;;5063811;28;20157;-75
2022/09/05 05:11:14;;;;;;;13.43;9.07;;;14.80;99.90;;;;;;5069922;28;20031;-75
2022/09/05 05:13:53;;;;;;;16.25;10.38;;;14.80;99.90;;;;;;5071272;28;20468;-75
2022/09/05 05:16:25;;;;;;;13.20;10.18;;;14.90;99.90;;;;;;5060639;28;20043;-75
2022/09/05 05:19:08;;;;;;;;;;;14.80;99.90;;;;;;5050938;28;20036;-75
2022/09/05 05:21:34;;;;;;;;;;;14.80;99.90;;;;;;5067877;28;20375;-75
2022/09/05 05:24:05;;;;;;;11.00;9.02;;;14.90;99.90;;;;;;5069706;28;19909;-76
2022/09/05 05:26:50;;;;;;;18.42;9.55;;;15.00;99.90;;;;;;5068028;28;20392;-75
2022/09/05 05:29:22;;;;;;;10.68;8.98;;;15.00;99.90;;;;;;5046107;28;20036;-75
2022/09/05 05:31:54;;;;;;;15.52;9.00;;;15.10;99.90;;;;;;5068360;28;20469;-75
2022/09/05 05:34:22;;;;;;;13.20;9.23;;;15.10;99.90;;;;;;5068447;28;20024;-76
2022/09/05 05:37:21;;;;;;;15.23;9.65;;;15.20;99.90;;;;;;5063125;28;20079;-75
2022/09/05 05:39:57;;;;;;;16.33;8.82;;;15.30;99.90;;;;;;5034206;28;20484;-76
2022/09/05 05:42:23;;;;;;;12.27;9.93;;;15.30;99.90;;;;;;5065340;28;20037;-76
2022/09/05 05:44:52;;;;;;;12.43;9.18;;;15.40;99.90;;;;;;5065133;28;20025;-76
2022/09/05 05:47:19;;;;;;;13.50;9.00;;;15.50;99.90;;;;;;5066744;28;20443;-75
2022/09/05 05:49:51;;;;;;;13.88;8.82;;;15.60;99.90;;;;;;5073631;28;20398;-75
2022/09/05 05:52:48;;;;;;;14.95;9.05;;;15.80;99.90;;;;;;5065686;28;20025;-75
2022/09/05 05:55:46;;;;;;;13.82;8.05;;;16.00;99.90;;;;;;5062336;28;20075;-76
2022/09/05 05:58:40;;;;;;;12.75;8.38;;;16.00;99.90;;;;;;5065262;28;20037;-75
2022/09/05 06:01:24;;;;;;;12.00;8.80;;;16.10;99.90;;;;;;5068961;28;20035;-74
2022/09/05 06:04:13;;;;;;;11.07;8.32;;;16.10;99.90;;;;;;5055339;28;20032;-75
2022/09/05 06:07:00;;;;;;;13.02;8.18;;;16.30;99.90;;;;;;5068149;28;20021;-76
2022/09/05 06:09:49;;;;;;;12.48;8.45;;;16.30;99.90;;;;;;5068248;28;20020;-75
2022/09/05 06:12:40;;;;;;;14.38;8.30;;;16.40;99.90;;;;;;5063571;28;20092;-75
2022/09/05 06:15:42;;;;;;;11.40;7.55;;;16.50;99.90;;;;;;5068356;28;20063;-75
2022/09/05 06:18:28;;;;;;;15.52;8.93;;;16.60;99.90;;;;;;5065232;28;20029;-76
2022/09/05 06:21:42;;;;;;;10.75;8.65;;;16.70;99.90;;;;;;5059486;28;20025;-75
2022/09/05 06:24:56;;;;;;;11.38;7.38;;;16.80;99.90;;;;;;5023866;28;20036;-75
2022/09/05 06:27:40;;;;;;;11.75;8.45;;;17.00;99.90;;;;;;5070618;28;20032;-75
2022/09/05 06:30:08;;;;;;;12.25;7.88;;;17.10;99.90;;;;;;5064084;28;20021;-75
2022/09/05 06:33:06;;;;;;;9.45;7.72;;;17.30;99.90;;;;;;5068995;28;20107;-75
2022/09/05 06:36:02;;;;;;;10.57;8.05;;;17.40;99.90;;;;;;5069174;28;20120;-75
2022/09/05 06:38:27;;;;;;;17.73;8.75;;;17.60;99.90;;;;;;5059437;28;20136;-76
2022/09/05 06:41:08;;;;;;;11.82;8.40;;;17.70;99.90;;;;;;5062481;28;20099;-76
2022/09/05 06:43:51;;;;;;;13.52;8.90;;;17.80;99.90;;;;;;5069113;28;20029;-75
2022/09/05 06:46:36;;;;;;;14.32;8.68;;;18.00;99.90;;;;;;5044095;28;20472;-76
2022/09/05 06:49:18;;;;;;;11.05;8.57;;;18.20;99.90;;;;;;5045902;28;20457;-76
2022/09/05 06:51:56;;;;;;;13.05;8.93;;;18.50;99.90;;;;;;5072804;28;20025;-75
2022/09/05 06:54:46;;;;;;;12.85;8.40;;;18.70;99.90;;;;;;5045383;28;20446;-75
2022/09/05 06:57:38;;;;;;;11.27;8.77;;;18.80;99.90;;;;;;5063305;28;20385;-75
2022/09/05 07:00:28;;;;;;;11.13;8.20;;;19.10;99.90;;;;;;5054992;28;20063;-75
2022/09/05 07:03:31;;;;;;;11.48;8.68;;;19.30;99.90;;;;;;5055979;28;20028;-76
2022/09/05 07:06:03;;;;;;;8.90;7.45;;;19.50;99.90;;;;;;5058695;28;20016;-76
2022/09/05 07:08:34;;;;;;;10.60;8.65;;;19.70;99.90;;;;;;5060246;28;20062;-76
2022/09/05 07:11:14;;;;;;;12.02;8.45;;;19.80;99.90;;;;;;5055451;28;20027;-74
2022/09/05 07:14:13;;;;;;;10.77;8.18;;;19.90;99.90;;;;;;5065981;28;20033;-75
2022/09/05 07:16:58;;;;;;;9.65;7.78;;;20.10;99.90;;;;;;5058561;28;20040;-75
2022/09/05 07:19:29;;;;;;;10.48;7.45;;;20.30;99.90;;;;;;5057735;28;20031;-75
2022/09/05 07:22:12;;;;;;;12.57;7.43;;;20.50;99.90;;;;;;5056910;28;20070;-74
2022/09/05 07:24:44;;;;;;;9.15;6.90;;;20.60;99.90;;;;;;5059308;28;20159;-74
2022/09/05 07:27:26;;;;;;;10.60;6.05;;;20.70;99.90;;;;;;5055593;28;20074;-74
2022/09/05 07:29:55;;;;;;;7.82;5.95;;;20.80;99.90;;;;;;5060587;28;20427;-75
2022/09/05 07:32:23;;;;;;;8.63;5.85;;;21.00;99.90;;;;;;5053860;28;20032;-75
2022/09/05 07:34:50;;;;;;;8.90;4.97;;;21.10;99.90;;;;;;5069067;28;20127;-75
2022/09/05 07:37:20;;;;;;;6.55;4.55;;;21.20;99.90;;;;;;5044426;28;20090;-75
2022/09/05 07:39:57;;;;;;;6.97;4.53;;;21.30;99.90;;;;;;5046666;28;20024;-75
2022/09/05 07:42:29;;;;;;;7.60;5.25;;;21.50;99.90;;;;;;5063930;28;20044;-74
2022/09/05 07:45:00;;;;;;;7.10;4.90;;;21.60;99.90;;;;;;5044537;28;20033;-75
2022/09/05 07:47:31;;;;;;;8.27;4.67;;;21.80;99.90;;;;;;5067085;28;20675;-75
2022/09/05 07:50:03;;;;;;;8.73;5.05;;;21.90;99.90;;;;;;5067483;28;20086;-75
2022/09/05 07:52:29;;;;;;;8.38;4.30;;;22.00;99.90;;;;;;5057373;28;21106;-75
2022/09/05 07:55:07;;;;;;;6.95;3.90;;;22.10;99.90;;;;;;5061700;28;20086;-75
2022/09/05 07:57:40;;;;;;;7.82;3.92;;;22.30;99.90;;;;;;5054330;28;20042;-75
2022/09/05 08:00:10;;;;;;;6.88;4.05;;;22.40;99.60;;;;;;5061764;28;20020;-75
2022/09/05 08:02:43;;;;;;;7.53;3.75;;;22.50;99.20;;;;;;5042289;28;20481;-75
2022/09/05 08:05:08;;;;;;;5.35;3.50;;;22.60;98.90;;;;;;5046860;28;20037;-75
2022/09/05 08:07:38;;;;;;;4.97;3.42;;;22.80;98.70;;;;;;5063962;28;20366;-75
2022/09/05 08:10:07;;;;;;;3.67;3.13;;;22.90;98.30;;;;;;5076505;28;20505;-75
2022/09/05 08:12:39;;;;;;;5.05;3.15;;;23.00;97.90;;;;;;5063349;28;20073;-75
2022/09/05 08:15:27;;;;;;;6.70;2.80;;;23.20;97.20;;;;;;5056696;28;20112;-75
2022/09/05 08:18:13;;;;;;;4.55;2.22;;;23.30;96.70;;;;;;5059127;28;20503;-74
2022/09/05 08:20:47;;;;;;;6.32;2.63;;;23.50;96.40;;;;;;5055649;28;20029;-75
2022/09/05 08:23:36;;;;;;;6.00;2.40;;;23.60;95.70;;;;;;5065641;28;20025;-75
2022/09/05 08:26:22;;;;;;;4.55;2.08;;;23.70;95.20;;;;;;5063103;28;20028;-75
2022/09/05 08:29:22;;;;;;;4.50;2.42;;;23.80;94.80;;;;;;5039671;28;20055;-75
2022/09/05 08:31:59;;;;;;;5.30;2.40;;;23.90;94.40;;;;;;5064274;28;20070;-75
2022/09/05 08:35:09;;;;;;;5.65;2.08;;;23.90;93.90;;;;;;5062019;28;20036;-75
2022/09/05 08:37:35;;;;;;;3.95;2.17;;;24.10;93.60;;;;;;5064395;28;20039;-75
2022/09/05 08:40:06;;;;;;;7.63;1.85;;;24.20;93.40;;;;;;5062983;28;20063;-75
2022/09/05 08:42:47;;;;;;;4.90;2.10;;;24.30;92.90;;;;;;5064582;28;20068;-76
2022/09/05 08:45:21;;;;;;;6.85;2.10;;;24.50;92.70;;;;;;5046052;28;20377;-75
2022/09/05 08:48:10;;;;;;;5.75;1.65;;;24.60;92.30;;;;;;5065559;28;20025;-75
2022/09/05 08:50:51;;;;;;;4.18;1.35;;;24.70;91.80;;;;;;5048290;28;20032;-74
2022/09/05 08:53:38;;;;;;;8.35;1.67;;;24.90;91.40;;;;;;5061475;28;20389;-74
2022/09/05 08:56:14;;;;;;;4.90;1.25;;;25.00;90.80;;;;;;5061963;28;20034;-75
2022/09/05 08:59:21;;;;;;;5.65;1.10;;;25.10;90.20;;;;;;5059123;28;20120;-75
2022/09/05 09:02:24;;;;;;;5.68;1.25;;;25.20;89.50;;;;;;5045017;28;20040;-75
2022/09/05 09:05:21;;;;;;;6.05;1.35;;;25.30;89.00;;;;;;5057811;28;20032;-75
2022/09/05 09:07:57;;;;;;;4.72;1.15;;;25.50;88.70;;;;;;5055174;28;20083;-75
2022/09/05 09:10:44;;;;;;;3.25;1.33;;;25.50;88.30;;;;;;5065893;28;20016;-75
2022/09/05 09:13:40;;;;;;;3.97;0.82;;;25.60;87.40;;;;;;5056780;28;20032;-75
2022/09/05 09:16:20;;;;;;;2.95;0.73;;;25.70;86.60;;;;;;5015598;28;20060;-75
2022/09/05 09:18:49;;;;;;;4.30;0.80;;;25.90;85.60;;;;;;5055365;28;20032;-75
2022/09/05 09:21:26;;;;;;;3.40;0.90;;;25.90;84.70;;;;;;5055996;28;20126;-75
2022/09/05 09:24:16;;;;;;;1.83;0.80;;;26.00;83.80;;;;;;5065095;28;20036;-75
2022/09/05 09:27:19;;;;;;;4.70;0.80;;;26.20;82.90;;;;;;5064540;28;20039;-75
2022/09/05 09:29:45;;;;;;;3.75;0.80;;;26.20;82.10;;;;;;5041250;28;20162;-76
2022/09/05 09:32:20;;;;;;;1.92;0.60;;;26.40;80.70;;;;;;5072107;28;20119;-75
2022/09/05 09:34:47;;;;;;;2.80;0.90;;;26.50;80.20;;;;;;5059669;28;20111;-75
2022/09/05 09:37:25;;;;;;;2.13;0.60;;;26.50;79.40;;;;;;5061608;28;20048;-75
2022/09/05 09:40:24;;;;;;;3.70;0.60;;;26.60;78.80;;;;;;5063844;28;20060;-75
2022/09/05 09:43:13;;;;;;;2.15;0.75;;;26.70;78.10;;;;;;5059060;28;20048;-75
2022/09/05 09:45:53;;;;;;;2.92;0.70;;;26.80;76.70;;;;;;5069555;28;20528;-75
2022/09/05 09:48:58;;;;;;;3.83;0.60;;;26.90;76.20;;;;;;5060732;28;20027;-75
2022/09/05 09:51:42;;;;;;;2.85;0.50;;;27.00;75.80;;;;;;5038212;28;20456;-76
2022/09/05 09:54:43;;;;;;;3.58;0.80;;;27.10;74.70;;;;;;5057378;28;20025;-75
2022/09/05 09:57:52;;;;;;;1.85;0.40;;;27.20;73.60;;;;;;5044870;28;20066;-75
2022/09/05 10:00:21;;;;;;;2.28;0.70;;;27.40;72.60;;;;;;5059345;28;20024;-74
2022/09/05 10:03:23;;;;;;;1.35;0.50;;;27.40;71.90;;;;;;5041176;28;20350;-74
2022/09/05 10:06:06;;;;;;;;;;;27.50;71.40;;;;;;5051152;28;20052;-75
2022/09/05 10:08:51;;;;;;;;;;;27.60;71.70;;;;;;5061631;28;20265;-75
2022/09/05 10:11:53;;;;;;;2.05;0.43;;;27.70;70.20;;;;;;5058122;28;19915;-75
2022/09/05 10:15:06;;;;;;;1.95;0.40;;;27.70;69.30;;;;;;5052290;28;20028;-74
2022/09/05 10:17:45;;;;;;;1.83;0.32;;;27.90;69.60;;;;;;5053723;28;20502;-75
2022/09/05 10:20:19;;;;;;;1.52;0.40;;;28.00;66.40;;;;;;5065555;28;20036;-74
2022/09/05 10:23:04;;;;;;;1.95;0.30;;;28.10;65.40;;;;;;5055077;28;20039;-74
2022/09/05 10:26:14;;;;;;;1.27;0.40;;;28.20;63.50;;;;;;5058919;28;20511;-74
2022/09/05 10:29:19;;;;;;;2.88;0.60;;;28.30;62.80;;;;;;5046566;28;20021;-74
2022/09/05 10:32:07;;;;;;;1.10;0.40;;;28.40;62.40;;;;;;5043087;28;20040;-74
2022/09/05 10:34:58;;;;;;;3.90;0.40;;;28.40;61.90;;;;;;5067583;28;20473;-74
2022/09/05 10:37:42;;;;;;;1.23;0.30;;;28.50;61.70;;;;;;5061589;28;20040;-74
2022/09/05 10:40:12;;;;;;;2.35;0.35;;;28.60;59.60;;;;;;5067964;28;20085;-74
2022/09/05 10:42:49;;;;;;;1.38;0.40;;;28.70;58.30;;;;;;5058728;28;20052;-75
2022/09/05 10:45:47;;;;;;;1.10;0.38;;;28.80;58.30;;;;;;5064660;28;20915;-75
2022/09/05 10:48:34;;;;;;;1.40;0.40;;;28.90;57.80;;;;;;5040662;28;20044;-75
2022/09/05 10:51:05;;;;;;;0.95;0.32;;;28.90;56.90;;;;;;5058410;28;20070;-75
2022/09/05 10:53:50;;;;;;;0.43;0.30;;;28.90;56.60;;;;;;5064100;28;20028;-75
2022/09/05 10:56:21;;;;;;;2.17;0.30;;;29.00;56.60;;;;;;5043553;28;20040;-77
2022/09/05 10:58:51;;;;;;;;;;;29.10;56.40;;;;;;5058753;28;20103;-76
2022/09/05 11:01:29;;;;;;;1.10;0.30;;;29.20;56.90;;;;;;5064172;28;20352;-76
2022/09/05 11:04:11;;;;;;;1.88;0.40;;;29.20;55.90;;;;;;5040533;28;20033;-76
2022/09/05 11:06:53;;;;;;;1.95;0.30;;;29.30;55.70;;;;;;5060527;28;20366;-76
2022/09/05 11:09:49;;;;;;;2.72;0.40;;;29.30;55.50;;;;;;5054319;28;20032;-76
2022/09/05 11:12:55;;;;;;;1.92;0.32;;;29.40;55.40;;;;;;5059317;28;20035;-76
2022/09/05 11:15:46;;;;;;;1.90;0.30;;;29.60;55.00;;;;;;5031166;28;20559;-76
2022/09/05 11:18:28;;;;;;;0.88;0.30;;;29.60;54.70;;;;;;5058123;28;20028;-77
2022/09/05 11:20:59;;;;;;;1.27;0.30;;;29.60;54.10;;;;;;5055903;28;20048;-76
2022/09/05 11:23:39;;;;;;;1.30;0.30;;;29.60;54.20;;;;;;5060124;28;20021;-76
2022/09/05 11:26:12;;;;;;;1.88;0.40;;;29.70;54.20;;;;;;5059201;28;20029;-76
2022/09/05 11:28:52;;;;;;;3.30;0.35;;;29.70;54.10;;;;;;5056643;28;20039;-76
2022/09/05 11:31:24;;;;;;;2.13;0.57;;;29.80;53.20;;;;;;5067750;28;20103;-76
2022/09/05 11:34:14;;;;;;;;;;;29.80;53.20;;;;;;5060194;28;20040;-76
2022/09/05 11:36:48;;;;;;;1.20;0.40;;;29.80;53.90;;;;;;5066089;28;19978;-76
2022/09/05 11:39:32;;;;;;;1.02;0.40;;;29.90;52.90;;;;;;5059467;28;20029;-76
2022/09/05 11:42:08;;;;;;;1.92;0.30;;;29.80;52.70;;;;;;5058872;28;20076;-75
2022/09/05 11:44:52;;;;;;;1.17;0.40;;;29.80;53.00;;;;;;5059980;28;20090;-76
2022/09/05 11:47:39;;;;;;;0.95;0.40;;;30.00;52.80;;;;;;5041915;28;20477;-76
2022/09/05 11:50:42;;;;;;;1.17;0.40;;;30.10;52.50;;;;;;5061953;28;20029;-76
2022/09/05 11:53:35;;;;;;;0.80;0.30;;;30.20;51.60;;;;;;5050238;28;20047;-76
2022/09/05 11:56:34;;;;;;;0.90;0.30;;;30.20;51.60;;;;;;5040389;28;20025;-76
2022/09/05 11:59:18;;;;;;;0.80;0.30;;;30.10;51.50;;;;;;5063395;28;20037;-74
2022/09/05 12:02:24;;;;;;;2.47;0.43;;;30.10;51.50;;;;;;5057668;28;20029;-73
2022/09/05 12:05:27;;;;;;;1.63;0.47;;;30.20;51.20;;;;;;5019839;28;20178;-73
2022/09/05 12:08:24;;;;;;;1.38;0.32;;;30.30;51.30;;;;;;5062081;28;20029;-74
2022/09/05 12:11:19;;;;;;;0.88;0.30;;;30.30;51.00;;;;;;5063365;28;20107;-74
2022/09/05 12:13:56;;;;;;;1.92;0.40;;;30.50;51.20;;;;;;5069715;28;20024;-74
2022/09/05 12:16:31;;;;;;;1.50;0.40;;;30.60;50.50;;;;;;5051402;28;20036;-74
2022/09/05 12:19:26;;;;;;;1.17;0.38;;;30.60;50.40;;;;;;5067716;28;20048;-74
2022/09/05 12:22:24;;;;;;;0.55;0.20;;;30.70;50.20;;;;;;5042040;28;20044;-73
2022/09/05 12:25:19;;;;;;;2.63;0.40;;;30.80;49.90;;;;;;5052934;28;20063;-73
2022/09/05 12:27:51;;;;;;;3.40;0.40;;;30.80;49.70;;;;;;5060491;28;20460;-73
2022/09/05 12:30:28;;;;;;;1.13;0.30;;;30.90;49.10;;;;;;5058439;28;20140;-74
2022/09/05 12:33:02;;;;;;;1.63;0.32;;;31.00;49.00;;;;;;5050891;28;20033;-73
2022/09/05 12:35:42;;;;;;;0.73;0.40;;;31.00;49.00;;;;;;5067783;28;20033;-73
2022/09/05 12:38:48;;;;;;;2.60;0.40;;;31.10;48.60;;;;;;5065762;28;20039;-74
2022/09/05 12:41:20;;;;;;;4.55;0.50;;;31.20;48.50;;;;;;5050218;28;20036;-73
2022/09/05 12:44:19;;;;;;;1.13;0.40;;;31.10;47.90;;;;;;5069570;28;20039;-74
2022/09/05 12:46:49;;;;;;;1.45;0.40;;;31.00;47.80;;;;;;5063030;28;20025;-73
2022/09/05 12:49:29;;;;;;;1.55;0.30;;;30.90;48.30;;;;;;5064913;28;20386;-73
2022/09/05 12:52:12;;;;;;;3.03;0.50;;;30.90;48.20;;;;;;5068011;28;20090;-74
2022/09/05 12:54:53;;;;;;;1.02;0.40;;;31.00;47.60;;;;;;5067380;28;20043;-73
2022/09/05 12:57:32;;;;;;;0.85;0.30;;;31.00;47.80;;;;;;5056827;28;20083;-73
2022/09/05 13:00:08;;;;;;;1.23;0.32;;;31.10;48.20;;;;;;5069416;28;20033;-73
2022/09/05 13:02:36;;;;;;;0.90;0.30;;;31.20;47.30;;;;;;5064550;28;20129;-73
2022/09/05 13:05:11;;;;;;;0.40;0.20;;;31.30;47.10;;;;;;5070080;28;20024;-73
2022/09/05 13:07:47;;;;;;;0.73;0.30;;;31.40;47.30;;;;;;5054940;28;20064;-73
2022/09/05 13:10:32;;;;;;;1.02;0.30;;;31.60;47.50;;;;;;5068348;28;20476;-73
2022/09/05 13:13:05;;;;;;;5.15;0.30;;;31.80;47.60;;;;;;5072830;28;20071;-73
2022/09/05 13:15:37;;;;;;;1.08;0.45;;;31.80;47.00;;;;;;5072210;28;20021;-74
2022/09/05 13:18:15;;;;;;;1.52;0.30;;;32.00;46.80;;;;;;5072778;28;20032;-74
2022/09/05 13:21:05;;;;;;;1.00;0.32;;;32.10;47.00;;;;;;5070449;28;20027;-74
2022/09/05 13:23:43;;;;;;;1.35;0.40;;;32.10;46.70;;;;;;5069620;28;20028;-74
2022/09/05 13:26:40;;;;;;;1.80;0.30;;;32.10;46.60;;;;;;5065595;28;21853;-74
2022/09/05 13:29:18;;;;;;;1.63;0.40;;;32.20;46.40;;;;;;5028798;28;20036;-74
2022/09/05 13:31:47;;;;;;;1.48;0.30;;;32.30;45.80;;;;;;5066896;28;20082;-74
2022/09/05 13:34:27;;;;;;;1.45;0.32;;;32.40;45.20;;;;;;5067278;28;20021;-74
2022/09/05 13:37:05;;;;;;;1.80;0.40;;;32.40;44.90;;;;;;5071708;28;20587;-74
2022/09/05 13:39:58;;;;;;;1.65;0.38;;;32.40;45.20;;;;;;5072868;28;20414;-74
2022/09/05 13:42:29;;;;;;;2.15;0.30;;;32.60;45.20;;;;;;5053987;28;20055;-73
2022/09/05 13:44:57;;;;;;;1.40;0.40;;;32.70;44.90;;;;;;5056756;28;20020;-74
2022/09/05 13:47:52;;;;;;;0.73;0.30;;;32.80;44.30;;;;;;5074173;28;20119;-73
2022/09/05 13:50:40;;;;;;;0.85;0.30;;;32.90;44.10;;;;;;5068476;28;20119;-74
2022/09/05 13:53:27;;;;;;;2.00;0.30;;;32.80;43.50;;;;;;5071220;28;20023;-73
2022/09/05 13:55:57;;;;;;;0.60;0.20;;;32.60;43.20;;;;;;5065923;28;20052;-74
2022/09/05 13:58:45;;;;;;;0.80;0.28;;;32.50;43.20;;;;;;5069248;28;20090;-74
2022/09/05 14:01:36;;;;;;;0.60;0.30;;;32.30;43.80;;;;;;5047856;28;20422;-73
2022/09/05 14:04:31;;;;;;;3.70;0.55;;;32.30;43.80;;;;;;5050041;28;20032;-73
2022/09/05 14:07:48;;;;;;;0.90;0.30;;;32.20;43.50;;;;;;5063910;28;20384;-74
2022/09/05 14:11:00;;;;;;;1.98;0.40;;;32.10;43.60;;;;;;5064765;28;20021;-73
2022/09/05 14:13:37;;;;;;;2.33;0.30;;;32.10;43.80;;;;;;5062121;28;20049;-74